createdAt,value
2018-05-02T00:00:21.923Z,83.04
2018-05-02T00:01:22.108Z,83.13
2018-05-02T00:02:22.291Z,83.13
2018-05-02T00:03:22.477Z,83.13
2018-05-02T00:04:22.677Z,82.94
2018-05-02T00:05:22.866Z,83.51
2018-05-02T00:06:23.053Z,83.70
2018-05-02T00:07:23.252Z,84.36
2018-05-02T00:08:23.454Z,84.04
2018-05-02T00:09:23.647Z,83.89
2018-05-02T00:10:23.852Z,83.61
2018-05-02T00:11:24.049Z,84.13
2018-05-02T00:13:56.707Z,84.23
2018-05-02T00:14:56.881Z,84.23
2018-05-02T00:15:57.071Z,84.04
2018-05-02T00:16:57.254Z,84.32
2018-05-02T00:19:30.120Z,84.89
2018-05-02T00:20:30.278Z,84.70
2018-05-02T00:21:30.462Z,84.80
2018-05-02T00:22:30.642Z,84.80
2018-05-02T00:23:30.834Z,84.89
2018-05-02T00:24:31.028Z,84.89
2018-05-02T00:25:31.212Z,84.99
2018-05-02T00:26:31.392Z,84.70
2018-05-02T00:27:31.588Z,84.80
2018-05-02T00:28:31.835Z,84.80
2018-05-02T00:29:31.959Z,84.80
2018-05-02T00:30:32.160Z,85.17
2018-05-02T00:31:32.336Z,85.36
2018-05-02T00:34:04.675Z,84.70
2018-05-02T00:35:04.817Z,85.46
2018-05-02T00:36:05.019Z,85.65
2018-05-02T00:37:05.203Z,85.46
2018-05-02T00:38:05.376Z,85.36
2018-05-02T00:39:05.562Z,85.08
2018-05-02T00:40:05.741Z,85.27
2018-05-02T00:41:05.923Z,85.46
2018-05-02T00:42:06.132Z,85.65
2018-05-02T00:43:06.334Z,85.65
2018-05-02T00:44:06.538Z,85.55
2018-05-02T00:45:06.713Z,85.93
2018-05-02T00:46:06.894Z,85.74
2018-05-02T00:47:07.082Z,86.69
2018-05-02T00:48:07.267Z,86.31
2018-05-02T00:49:07.453Z,86.50
2018-05-02T00:50:07.665Z,86.69
2018-05-02T00:51:07.836Z,86.41
2018-05-02T00:52:08.016Z,86.41
2018-05-02T00:53:08.205Z,86.22
2018-05-02T00:54:08.400Z,86.69
2018-05-02T00:56:41.109Z,86.22
2018-05-02T00:57:41.284Z,86.41
2018-05-02T00:58:41.463Z,86.41
2018-05-02T00:59:41.646Z,86.31
2018-05-02T01:00:41.823Z,86.79
2018-05-02T01:01:41.999Z,86.88
2018-05-02T01:02:42.174Z,87.07
2018-05-02T01:03:42.353Z,86.41
2018-05-02T01:04:42.540Z,86.88
2018-05-02T01:05:42.756Z,86.79
2018-05-02T01:06:42.942Z,86.88
2018-05-02T01:07:43.131Z,86.79
2018-05-02T01:08:43.332Z,86.60
2018-05-02T01:09:43.533Z,86.60
2018-05-02T01:10:43.739Z,86.60
2018-05-02T01:11:43.935Z,86.79
2018-05-02T01:12:44.115Z,87.16
2018-05-02T01:13:44.307Z,86.88
2018-05-02T01:14:44.497Z,86.69
2018-05-02T01:15:44.767Z,86.79
2018-05-02T01:16:44.815Z,86.88
2018-05-02T01:17:45.025Z,86.93
2018-05-02T01:18:45.248Z,87.12
2018-05-02T01:19:45.421Z,87.45
2018-05-02T01:20:45.629Z,87.40
2018-05-02T01:21:45.803Z,87.45
2018-05-02T01:22:45.982Z,87.40
2018-05-02T01:23:46.161Z,86.93
2018-05-02T01:24:46.348Z,87.21
2018-05-02T01:25:46.527Z,87.02
2018-05-02T01:26:46.716Z,87.12
2018-05-02T01:27:46.891Z,87.69
2018-05-02T01:28:47.091Z,88.07
2018-05-02T01:29:47.280Z,87.98
2018-05-02T01:30:47.468Z,88.35
2018-05-02T01:31:47.662Z,87.98
2018-05-02T01:32:47.849Z,87.98
2018-05-02T01:35:20.091Z,87.69
2018-05-02T01:36:20.256Z,87.50
2018-05-02T01:37:20.440Z,87.59
2018-05-02T01:38:20.636Z,87.40
2018-05-02T01:39:20.846Z,87.50
2018-05-02T01:40:21.025Z,87.40
2018-05-02T01:41:21.202Z,87.69
2018-05-02T01:42:21.404Z,87.98
2018-05-02T01:43:21.587Z,87.88
2018-05-02T01:44:21.777Z,87.31
2018-05-02T01:45:21.952Z,88.07
2018-05-02T01:46:22.156Z,87.69
2018-05-02T01:47:22.341Z,88.45
2018-05-02T01:48:22.540Z,88.64
2018-05-02T01:49:22.800Z,88.45
2018-05-02T01:50:22.918Z,88.54
2018-05-02T01:51:23.100Z,88.64
2018-05-02T01:52:23.274Z,88.45
2018-05-02T01:53:23.477Z,88.73
2018-05-02T01:54:23.674Z,88.64
2018-05-02T01:55:24.499Z,88.64
2018-05-02T01:56:24.056Z,89.01
2018-05-02T01:57:24.241Z,88.82
2018-05-02T01:58:24.431Z,89.11
2018-05-02T01:59:24.616Z,88.82
2018-05-02T02:00:24.801Z,88.64
2018-05-02T02:01:25.006Z,88.45
2018-05-02T02:02:25.181Z,88.92
2018-05-02T02:03:25.382Z,89.49
2018-05-02T02:04:25.572Z,89.11
2018-05-02T02:05:25.744Z,89.20
2018-05-02T02:06:25.935Z,89.58
2018-05-02T02:07:26.120Z,88.82
2018-05-02T02:08:26.324Z,88.82
2018-05-02T02:09:27.150Z,89.20
2018-05-02T02:10:26.819Z,89.01
2018-05-02T02:11:26.893Z,89.11
2018-05-02T02:12:27.094Z,89.11
2018-05-02T02:13:27.274Z,89.11
2018-05-02T02:14:27.454Z,89.49
2018-05-02T02:15:27.654Z,89.20
2018-05-02T02:16:27.868Z,89.44
2018-05-02T02:17:28.065Z,89.35
2018-05-02T02:18:28.247Z,89.82
2018-05-02T02:19:28.445Z,89.54
2018-05-02T02:20:28.624Z,90.20
2018-05-02T02:21:28.818Z,90.20
2018-05-02T02:22:29.008Z,90.11
2018-05-02T02:25:03.343Z,90.01
2018-05-02T02:26:02.001Z,89.92
2018-05-02T02:27:02.180Z,90.20
2018-05-02T02:28:02.364Z,90.11
2018-05-02T02:29:03.291Z,89.82
2018-05-02T02:30:02.741Z,89.82
2018-05-02T02:31:02.931Z,89.92
2018-05-02T02:32:03.112Z,90.20
2018-05-02T02:33:03.372Z,90.39
2018-05-02T02:34:03.516Z,90.39
2018-05-02T02:35:03.626Z,90.30
2018-05-02T02:36:03.804Z,90.30
2018-05-02T02:37:03.988Z,90.01
2018-05-02T02:39:36.721Z,90.01
2018-05-02T02:40:37.020Z,90.01
2018-05-02T02:41:37.080Z,90.20
2018-05-02T02:42:37.277Z,90.01
2018-05-02T02:43:37.476Z,90.20
2018-05-02T02:44:37.648Z,90.20
2018-05-02T02:47:10.514Z,90.39
2018-05-02T02:48:10.682Z,90.77
2018-05-02T02:49:10.879Z,90.58
2018-05-02T02:50:11.059Z,90.39
2018-05-02T02:51:11.253Z,90.11
2018-05-02T02:52:11.442Z,90.48
2018-05-02T02:53:11.620Z,90.48
2018-05-02T02:54:11.828Z,90.77
2018-05-02T02:55:12.012Z,91.05
2018-05-02T02:56:12.212Z,90.39
2018-05-02T02:57:12.402Z,90.20
2018-05-02T02:58:12.573Z,90.58
2018-05-02T03:00:47.905Z,89.92
2018-05-02T03:01:45.444Z,90.30
2018-05-02T03:02:45.628Z,90.77
2018-05-02T03:03:45.804Z,91.15
2018-05-02T03:04:46.009Z,91.15
2018-05-02T03:05:46.182Z,90.86
2018-05-02T03:06:46.385Z,90.77
2018-05-02T03:07:46.638Z,90.58
2018-05-02T03:08:46.712Z,90.67
2018-05-02T03:09:46.895Z,90.48
2018-05-02T03:10:47.084Z,90.20
2018-05-02T03:11:47.274Z,90.20
2018-05-02T03:12:47.473Z,90.11
2018-05-02T03:13:47.675Z,90.39
2018-05-02T03:14:47.860Z,90.58
2018-05-02T03:15:48.035Z,90.30
2018-05-02T03:16:48.241Z,90.20
2018-05-02T03:17:48.419Z,90.39
2018-05-02T03:18:48.609Z,90.30
2018-05-02T03:19:48.805Z,90.30
2018-05-02T03:20:49.008Z,90.11
2018-05-02T03:21:49.183Z,90.77
2018-05-02T03:22:49.384Z,90.77
2018-05-02T03:23:49.573Z,91.15
2018-05-02T03:24:49.747Z,92.00
2018-05-02T03:25:49.923Z,91.53
2018-05-02T03:26:50.124Z,91.05
2018-05-02T03:27:50.305Z,91.05
2018-05-02T03:28:50.501Z,91.15
2018-05-02T03:29:50.700Z,91.34
2018-05-02T03:30:50.885Z,91.72
2018-05-02T03:31:51.134Z,91.53
2018-05-02T03:32:51.217Z,91.53
2018-05-02T03:33:51.415Z,91.91
2018-05-02T03:34:51.616Z,92.00
2018-05-02T03:35:51.795Z,91.72
2018-05-02T03:36:51.965Z,91.72
2018-05-02T03:37:52.167Z,92.10
2018-05-02T03:38:52.344Z,91.53
2018-05-02T03:39:52.544Z,91.62
2018-05-02T03:40:52.729Z,91.53
2018-05-02T03:41:52.910Z,92.00
2018-05-02T03:42:53.110Z,91.15
2018-05-02T03:43:53.298Z,91.62
2018-05-02T03:44:53.485Z,91.72
2018-05-02T03:45:53.665Z,91.05
2018-05-02T03:46:53.849Z,91.72
2018-05-02T03:47:54.050Z,91.72
2018-05-02T03:48:54.226Z,91.53
2018-05-02T03:49:54.412Z,91.53
2018-05-02T03:50:54.593Z,91.72
2018-05-02T03:51:54.772Z,91.72
2018-05-02T03:54:28.605Z,91.81
2018-05-02T03:55:27.399Z,91.81
2018-05-02T03:58:00.091Z,91.34
2018-05-02T03:59:00.261Z,91.34
2018-05-02T04:00:00.445Z,91.24
2018-05-02T04:01:00.645Z,91.05
2018-05-02T04:02:00.853Z,91.15
2018-05-02T04:03:01.031Z,92.00
2018-05-02T04:04:01.346Z,91.81
2018-05-02T04:05:01.425Z,91.62
2018-05-02T04:06:01.624Z,91.72
2018-05-02T04:07:01.815Z,91.53
2018-05-02T04:08:02.001Z,90.96
2018-05-02T04:09:02.186Z,91.34
2018-05-02T04:10:02.366Z,90.58
2018-05-02T04:11:02.538Z,90.96
2018-05-02T04:12:02.713Z,90.20
2018-05-02T04:13:02.903Z,90.01
2018-05-02T04:14:03.196Z,90.01
2018-05-02T04:16:35.754Z,90.30
2018-05-02T04:17:35.918Z,90.77
2018-05-02T04:18:36.124Z,90.67
2018-05-02T04:19:36.303Z,90.58
2018-05-02T04:20:36.477Z,90.86
2018-05-02T04:21:36.654Z,91.24
2018-05-02T04:22:36.838Z,91.15
2018-05-02T04:23:37.035Z,90.77
2018-05-02T04:24:37.229Z,89.73
2018-05-02T04:25:37.435Z,89.68
2018-05-02T04:26:37.618Z,89.20
2018-05-02T04:27:37.792Z,88.82
2018-05-02T04:28:37.973Z,87.69
2018-05-02T04:29:38.160Z,87.78
2018-05-02T04:30:38.342Z,87.12
2018-05-02T04:31:38.524Z,87.12
2018-05-02T04:32:38.709Z,87.02
2018-05-02T04:35:11.372Z,86.55
2018-05-02T04:36:11.539Z,86.36
2018-05-02T04:38:43.331Z,85.17
2018-05-02T04:39:43.573Z,84.23
2018-05-02T04:40:43.695Z,83.37
2018-05-02T04:41:43.884Z,83.75
2018-05-02T04:42:44.060Z,83.75
2018-05-02T04:43:44.235Z,83.75
2018-05-02T04:44:44.422Z,83.37
2018-05-02T04:45:44.615Z,82.66
2018-05-02T04:46:44.801Z,81.52
2018-05-02T04:47:45.038Z,79.82
2018-05-02T04:48:45.217Z,79.82
2018-05-02T04:49:45.407Z,79.82
2018-05-02T04:50:45.598Z,80.29
2018-05-02T04:51:45.808Z,80.76
2018-05-02T04:52:46.005Z,81.05
2018-05-02T04:53:46.188Z,81.52
2018-05-02T04:54:46.367Z,81.24
2018-05-02T04:55:46.565Z,82.18
2018-05-02T04:58:19.665Z,82.43
2018-05-02T04:59:19.830Z,82.90
2018-05-02T05:00:20.021Z,83.18
2018-05-02T05:01:20.224Z,83.47
2018-05-02T05:02:20.449Z,83.47
2018-05-02T05:03:20.662Z,83.18
2018-05-02T05:04:20.855Z,83.66
2018-05-02T05:05:21.051Z,83.18
2018-05-02T05:06:21.234Z,82.43
2018-05-02T05:07:21.415Z,82.81
2018-05-02T05:08:21.601Z,81.90
2018-05-02T05:09:21.799Z,81.14
2018-05-02T05:10:21.972Z,80.95
2018-05-02T05:11:22.152Z,81.24
2018-05-02T05:12:22.348Z,81.43
2018-05-02T05:13:22.526Z,81.90
2018-05-02T05:14:22.721Z,82.18
2018-05-02T05:15:22.924Z,82.47
2018-05-02T05:16:23.119Z,82.56
2018-05-02T05:17:23.295Z,82.18
2018-05-02T05:18:23.480Z,82.09
2018-05-02T05:19:23.672Z,81.62
2018-05-02T05:20:23.869Z,80.95
2018-05-02T05:21:24.051Z,81.05
2018-05-02T05:22:24.267Z,80.76
2018-05-02T05:23:24.449Z,80.19
2018-05-02T05:24:24.625Z,79.57
2018-05-02T05:25:24.832Z,79.95
2018-05-02T05:26:25.025Z,79.85
2018-05-02T05:27:25.210Z,80.14
2018-05-02T05:28:25.412Z,80.90
2018-05-02T05:29:25.632Z,80.24
2018-05-02T05:30:25.807Z,79.85
2018-05-02T05:32:58.642Z,80.99
2018-05-02T05:33:58.805Z,79.85
2018-05-02T05:34:59.078Z,79.28
2018-05-02T05:35:59.155Z,79.76
2018-05-02T05:36:59.340Z,80.43
2018-05-02T05:37:59.547Z,79.95
2018-05-02T05:38:59.744Z,79.76
2018-05-02T05:39:59.922Z,79.47
2018-05-02T05:41:00.127Z,80.43
2018-05-02T05:42:00.337Z,80.62
2018-05-02T05:43:00.508Z,80.52
2018-05-02T05:44:00.716Z,79.91
2018-05-02T05:45:00.886Z,80.67
2018-05-02T05:46:01.087Z,80.76
2018-05-02T05:47:01.271Z,80.67
2018-05-02T05:48:01.452Z,81.05
2018-05-02T05:49:01.643Z,80.90
2018-05-02T05:50:01.840Z,80.33
2018-05-02T05:51:02.025Z,79.85
2018-05-02T05:52:02.211Z,79.57
2018-05-02T05:53:02.385Z,79.38
2018-05-02T05:54:02.599Z,79.47
2018-05-02T05:55:02.739Z,79.04
2018-05-02T05:57:36.603Z,79.38
2018-05-02T05:58:35.003Z,79.19
2018-05-02T05:59:35.205Z,79.76
2018-05-02T06:00:35.419Z,80.24
2018-05-02T06:01:35.613Z,80.62
2018-05-02T06:02:35.790Z,80.08
2018-05-02T06:03:35.993Z,78.75
2018-05-02T06:04:36.186Z,76.71
2018-05-02T06:05:36.401Z,76.08
2018-05-02T06:08:08.238Z,68.77
2018-05-02T06:09:08.412Z,66.08
2018-05-02T06:10:08.592Z,62.59
2018-05-02T06:11:08.791Z,60.62
2018-05-02T06:12:08.974Z,59.35
2018-05-02T06:13:09.160Z,59.00
2018-05-02T06:14:09.353Z,59.45
2018-05-02T06:16:41.450Z,63.86
2018-05-02T06:17:41.623Z,64.05
2018-05-02T06:18:41.823Z,65.54
2018-05-02T06:19:42.003Z,65.06
2018-05-02T06:20:42.210Z,65.73
2018-05-02T06:21:42.395Z,67.16
2018-05-02T06:22:42.584Z,66.49
2018-05-02T06:23:42.786Z,67.16
2018-05-02T06:24:42.978Z,67.16
2018-05-02T06:25:43.187Z,67.29
2018-05-02T06:26:43.385Z,65.16
2018-05-02T06:27:43.589Z,64.53
2018-05-02T06:28:43.798Z,65.19
2018-05-02T06:29:44.005Z,64.94
2018-05-02T06:30:44.205Z,63.96
2018-05-02T06:31:44.489Z,65.89
2018-05-02T06:32:44.622Z,65.54
2018-05-02T06:33:44.826Z,65.06
2018-05-02T06:34:45.068Z,66.65
2018-05-02T06:35:45.215Z,67.25
2018-05-02T06:36:45.401Z,65.77
2018-05-02T06:39:19.246Z,64.37
2018-05-02T06:40:17.795Z,63.70
2018-05-02T06:41:17.977Z,62.68
2018-05-02T06:42:18.177Z,60.81
2018-05-02T06:43:18.359Z,58.29
2018-05-02T06:44:18.570Z,56.38
2018-05-02T06:45:18.764Z,56.62
2018-05-02T06:46:19.023Z,57.98
2018-05-02T06:47:19.090Z,57.53
2018-05-02T06:48:19.281Z,57.53
2018-05-02T06:49:19.550Z,55.05
2018-05-02T06:50:19.697Z,55.18
2018-05-02T06:51:19.857Z,54.66
2018-05-02T06:52:20.066Z,50.70
2018-05-02T06:53:20.253Z,49.35
2018-05-02T06:54:20.443Z,50.43
2018-05-02T06:55:20.636Z,52.50
2018-05-02T06:56:20.829Z,53.91
2018-05-02T06:57:21.028Z,54.67
2018-05-02T06:58:21.239Z,54.48
2018-05-02T06:59:21.452Z,55.62
2018-05-02T07:00:21.647Z,56.07
2018-05-02T07:01:21.838Z,56.46
2018-05-02T07:02:22.047Z,56.93
2018-05-02T07:03:22.311Z,57.41
2018-05-02T07:04:22.443Z,57.60
2018-05-02T07:05:22.654Z,57.41
2018-05-02T07:06:22.853Z,57.76
2018-05-02T07:07:23.042Z,58.52
2018-05-02T07:08:23.251Z,59.12
2018-05-02T07:09:23.434Z,59.34
2018-05-02T07:10:23.625Z,57.60
2018-05-02T07:11:23.836Z,56.65
2018-05-02T07:12:24.060Z,57.38
2018-05-02T07:13:24.314Z,57.95
2018-05-02T07:14:24.447Z,57.98
2018-05-02T07:15:24.629Z,56.90
2018-05-02T07:16:24.836Z,57.45
2018-05-02T07:17:25.044Z,59.12
2018-05-02T07:18:25.259Z,58.11
2018-05-02T07:19:25.440Z,54.08
2018-05-02T07:20:25.651Z,51.43
2018-05-02T07:21:25.861Z,50.38
2018-05-02T07:22:26.063Z,48.54
2018-05-02T07:23:26.282Z,49.16
2018-05-02T07:24:26.489Z,49.02
2018-05-02T07:25:26.686Z,46.82
2018-05-02T07:26:26.888Z,45.48
2018-05-02T07:28:58.994Z,47.11
2018-05-02T07:29:59.172Z,45.84
2018-05-02T07:32:32.055Z,46.98
2018-05-02T07:33:32.186Z,48.61
2018-05-02T07:34:32.390Z,47.16
2018-05-02T07:35:32.596Z,46.41
2018-05-02T07:36:32.788Z,46.70
2018-05-02T07:37:33.014Z,47.27
2018-05-02T07:38:33.238Z,47.47
2018-05-02T07:39:33.422Z,47.56
2018-05-02T07:40:33.627Z,47.47
2018-05-02T07:41:33.820Z,47.47
2018-05-02T07:42:34.021Z,51.00
2018-05-02T07:43:34.218Z,51.12
2018-05-02T07:44:34.425Z,49.04
2018-05-02T07:45:34.631Z,48.47
2018-05-02T07:46:34.831Z,48.25
2018-05-02T07:47:35.047Z,51.26
2018-05-02T07:48:35.285Z,52.50
2018-05-02T07:49:35.446Z,52.94
2018-05-02T07:50:35.632Z,52.40
2018-05-02T07:51:35.824Z,53.36
2018-05-02T07:52:36.041Z,53.13
2018-05-02T07:53:36.230Z,50.41
2018-05-02T07:54:36.425Z,49.07
2018-05-02T07:55:36.633Z,48.49
2018-05-02T07:56:36.852Z,47.53
2018-05-02T07:57:37.049Z,48.30
2018-05-02T07:58:37.241Z,47.37
2018-05-02T07:59:37.440Z,47.37
2018-05-02T08:00:37.658Z,47.37
2018-05-02T08:01:37.847Z,48.68
2018-05-02T08:02:38.064Z,48.59
2018-05-02T08:03:38.273Z,48.97
2018-05-02T08:04:38.467Z,49.35
2018-05-02T08:05:38.664Z,48.52
2018-05-02T08:06:38.853Z,47.75
2018-05-02T08:07:39.051Z,47.47
2018-05-02T08:08:39.241Z,46.80
2018-05-02T08:09:39.468Z,46.53
2018-05-02T08:10:39.682Z,45.89
2018-05-02T08:11:39.882Z,44.85
2018-05-02T08:14:12.000Z,44.83
2018-05-02T08:15:12.175Z,44.27
2018-05-02T08:16:12.370Z,43.60
2018-05-02T08:17:12.575Z,46.94
2018-05-02T08:18:12.799Z,47.87
2018-05-02T08:19:12.996Z,47.75
2018-05-02T08:21:45.171Z,46.72
2018-05-02T08:22:45.229Z,47.49
2018-05-02T08:23:45.416Z,46.65
2018-05-02T08:24:45.633Z,46.75
2018-05-02T08:25:45.833Z,46.26
2018-05-02T08:26:46.029Z,45.79
2018-05-02T08:27:46.208Z,46.84
2018-05-02T08:28:46.417Z,46.75
2018-05-02T08:29:46.636Z,46.75
2018-05-02T08:30:46.822Z,45.43
2018-05-02T08:31:47.019Z,45.50
2018-05-02T08:32:47.268Z,45.94
2018-05-02T08:33:47.449Z,47.47
2018-05-02T08:34:47.633Z,49.19
2018-05-02T08:35:47.848Z,49.31
2018-05-02T08:36:48.069Z,49.11
2018-05-02T08:37:48.272Z,48.44
2018-05-02T08:38:48.518Z,48.54
2018-05-02T08:39:48.651Z,46.62
2018-05-02T08:40:48.844Z,46.08
2018-05-02T08:41:49.042Z,44.93
2018-05-02T08:44:21.152Z,47.44
2018-05-02T08:45:21.341Z,45.81
2018-05-02T08:46:21.528Z,45.43
2018-05-02T08:47:21.728Z,45.16
2018-05-02T08:48:21.924Z,44.95
2018-05-02T08:49:22.116Z,43.85
2018-05-02T08:50:22.318Z,43.51
2018-05-02T08:51:22.530Z,41.85
2018-05-02T08:52:22.726Z,42.64
2018-05-02T08:53:22.946Z,39.85
2018-05-02T08:54:23.163Z,43.01
2018-05-02T08:55:23.359Z,41.69
2018-05-02T08:56:23.562Z,40.47
2018-05-02T08:57:23.782Z,40.35
2018-05-02T08:58:23.947Z,39.10
2018-05-02T08:59:24.142Z,38.09
2018-05-02T09:00:24.332Z,39.33
2018-05-02T09:01:24.532Z,39.14
2018-05-02T09:02:24.754Z,39.04
2018-05-02T09:03:24.972Z,37.34
2018-05-02T09:04:25.387Z,36.01
2018-05-02T09:05:25.324Z,38.60
2018-05-02T09:06:25.528Z,35.99
2018-05-02T09:07:25.734Z,34.84
2018-05-02T09:08:25.932Z,34.86
2018-05-02T09:09:26.123Z,34.23
2018-05-02T09:10:26.322Z,34.41
2018-05-02T09:11:26.529Z,36.22
2018-05-02T09:12:26.768Z,38.99
2018-05-02T09:13:26.937Z,37.64
2018-05-02T09:14:27.145Z,36.41
2018-05-02T09:15:27.393Z,34.57
2018-05-02T09:16:27.558Z,35.53
2018-05-02T09:17:27.763Z,37.07
2018-05-02T09:18:27.982Z,37.74
2018-05-02T09:21:01.842Z,39.53
2018-05-02T09:22:00.388Z,41.06
2018-05-02T09:23:00.595Z,40.00
2018-05-02T09:24:00.811Z,39.43
2018-05-02T09:25:01.043Z,37.89
2018-05-02T09:26:01.243Z,41.04
2018-05-02T09:27:01.455Z,39.60
2018-05-02T09:28:01.652Z,40.10
2018-05-02T09:29:01.856Z,41.44
2018-05-02T09:30:02.075Z,38.93
2018-05-02T09:31:02.270Z,39.79
2018-05-02T09:32:02.466Z,42.11
2018-05-02T09:33:02.658Z,42.02
2018-05-02T09:34:02.848Z,41.93
2018-05-02T09:35:03.050Z,42.11
2018-05-02T09:36:03.331Z,40.29
2018-05-02T09:37:03.400Z,39.79
2018-05-02T09:38:03.607Z,38.93
2018-05-02T09:39:03.801Z,39.12
2018-05-02T09:40:04.017Z,41.42
2018-05-02T09:41:04.215Z,38.93
2018-05-02T09:42:04.426Z,39.41
2018-05-02T09:43:04.612Z,41.06
2018-05-02T09:44:04.825Z,37.26
2018-05-02T09:45:05.000Z,36.32
2018-05-02T09:46:05.219Z,35.63
2018-05-02T09:48:39.073Z,36.38
2018-05-02T09:49:37.500Z,37.53
2018-05-02T09:50:37.700Z,37.05
2018-05-02T09:51:37.899Z,37.32
2018-05-02T09:52:38.100Z,36.34
2018-05-02T09:53:38.311Z,36.65
2018-05-02T09:54:38.502Z,35.99
2018-05-02T09:55:38.698Z,37.41
2018-05-02T09:56:38.941Z,35.88
2018-05-02T09:57:39.168Z,34.95
2018-05-02T09:58:39.401Z,34.09
2018-05-02T09:59:39.588Z,35.34
2018-05-02T10:00:39.782Z,35.61
2018-05-02T10:01:39.989Z,35.05
2018-05-02T10:02:40.192Z,34.19
2018-05-02T10:03:40.382Z,33.53
2018-05-02T10:04:40.593Z,32.67
2018-05-02T10:05:40.808Z,32.84
2018-05-02T10:06:41.022Z,33.42
2018-05-02T10:07:41.211Z,34.09
2018-05-02T10:08:41.423Z,34.59
2018-05-02T10:09:41.657Z,33.53
2018-05-02T10:10:41.854Z,32.57
2018-05-02T10:11:42.042Z,33.23
2018-05-02T10:12:42.278Z,32.84
2018-05-02T10:13:42.437Z,32.84
2018-05-02T10:14:42.628Z,32.93
2018-05-02T10:15:42.845Z,33.99
2018-05-02T10:16:43.050Z,33.70
2018-05-02T10:17:43.256Z,33.69
2018-05-02T10:18:43.538Z,34.25
2018-05-02T10:19:43.603Z,36.38
2018-05-02T10:20:43.803Z,37.11
2018-05-02T10:21:43.998Z,36.49
2018-05-02T10:22:44.215Z,36.24
2018-05-02T10:23:44.429Z,35.71
2018-05-02T10:24:44.622Z,36.47
2018-05-02T10:25:44.834Z,36.38
2018-05-02T10:26:45.032Z,36.20
2018-05-02T10:27:45.228Z,35.05
2018-05-02T10:28:45.458Z,33.75
2018-05-02T10:29:45.707Z,34.90
2018-05-02T10:30:45.901Z,37.22
2018-05-02T10:31:46.101Z,35.46
2018-05-02T10:32:46.304Z,36.51
2018-05-02T10:33:46.513Z,35.28
2018-05-02T10:34:46.737Z,34.82
2018-05-02T10:35:46.938Z,34.53
2018-05-02T10:36:47.181Z,33.48
2018-05-02T10:37:47.395Z,33.69
2018-05-02T10:38:47.583Z,36.26
2018-05-02T10:39:47.802Z,37.03
2018-05-02T10:40:48.012Z,36.57
2018-05-02T10:41:48.212Z,34.45
2018-05-02T10:42:48.419Z,35.03
2018-05-02T10:43:48.610Z,34.75
2018-05-02T10:44:48.810Z,34.53
2018-05-02T10:45:49.031Z,36.55
2018-05-02T10:46:49.258Z,36.74
2018-05-02T10:47:49.475Z,35.61
2018-05-02T10:48:49.662Z,36.09
2018-05-02T10:49:49.856Z,35.24
2018-05-02T10:50:50.056Z,37.41
2018-05-02T10:51:50.238Z,37.15
2018-05-02T10:52:50.443Z,38.18
2018-05-02T10:53:50.643Z,38.28
2018-05-02T10:54:50.868Z,38.28
2018-05-02T10:55:51.252Z,38.95
2018-05-02T10:56:51.267Z,39.53
2018-05-02T10:57:51.472Z,39.43
2018-05-02T10:58:51.650Z,39.14
2018-05-02T10:59:51.843Z,39.04
2018-05-02T11:00:52.057Z,40.20
2018-05-02T11:01:52.274Z,40.31
2018-05-02T11:02:52.473Z,38.18
2018-05-02T11:05:25.825Z,40.48
2018-05-02T11:06:24.497Z,39.16
2018-05-02T11:07:24.692Z,39.93
2018-05-02T11:08:24.900Z,39.66
2018-05-02T11:09:25.101Z,40.72
2018-05-02T11:10:25.319Z,40.12
2018-05-02T11:11:25.522Z,40.10
2018-05-02T11:12:25.720Z,40.79
2018-05-02T11:13:25.919Z,42.13
2018-05-02T11:14:26.121Z,42.33
2018-05-02T11:15:26.350Z,42.23
2018-05-02T11:16:26.545Z,40.02
2018-05-02T11:17:26.759Z,40.29
2018-05-02T11:18:26.957Z,41.13
2018-05-02T11:19:27.157Z,42.29
2018-05-02T11:20:27.371Z,42.57
2018-05-02T11:21:27.572Z,41.50
2018-05-02T11:22:27.766Z,41.78
2018-05-02T11:23:27.970Z,41.63
2018-05-02T11:24:28.176Z,40.47
2018-05-02T11:25:28.393Z,41.23
2018-05-02T11:26:28.612Z,42.57
2018-05-02T11:27:28.844Z,43.05
2018-05-02T11:28:29.014Z,42.67
2018-05-02T11:29:29.207Z,43.05
2018-05-02T11:30:29.396Z,42.47
2018-05-02T11:31:29.583Z,44.13
2018-05-02T11:32:29.781Z,42.13
2018-05-02T11:33:29.978Z,41.75
2018-05-02T11:34:30.189Z,42.60
2018-05-02T11:35:30.384Z,42.71
2018-05-02T11:36:30.604Z,43.57
2018-05-02T11:37:30.817Z,41.35
2018-05-02T11:38:31.022Z,42.69
2018-05-02T11:39:31.221Z,42.69
2018-05-02T11:40:31.427Z,40.66
2018-05-02T11:41:31.633Z,42.38
2018-05-02T11:42:31.846Z,41.93
2018-05-02T11:43:32.032Z,42.60
2018-05-02T11:44:32.233Z,44.61
2018-05-02T11:45:32.440Z,45.83
2018-05-02T11:46:32.613Z,43.13
2018-05-02T11:47:32.804Z,42.67
2018-05-02T11:48:33.010Z,41.90
2018-05-02T11:49:33.234Z,42.86
2018-05-02T11:50:33.432Z,42.77
2018-05-02T11:51:33.643Z,46.62
2018-05-02T11:52:33.940Z,44.03
2018-05-02T11:53:34.126Z,45.18
2018-05-02T11:54:34.290Z,43.17
2018-05-02T11:55:34.494Z,43.74
2018-05-02T11:56:34.691Z,43.46
2018-05-02T11:57:34.885Z,42.69
2018-05-02T11:58:35.077Z,40.41
2018-05-02T11:59:35.270Z,41.66
2018-05-02T12:00:35.468Z,42.02
2018-05-02T12:01:35.699Z,41.71
2018-05-02T12:02:35.972Z,42.36
2018-05-02T12:03:36.210Z,43.13
2018-05-02T12:04:36.345Z,42.38
2018-05-02T12:05:36.542Z,42.11
2018-05-02T12:06:36.757Z,41.80
2018-05-02T12:09:09.090Z,40.41
2018-05-02T12:10:09.421Z,41.25
2018-05-02T12:11:09.631Z,43.19
2018-05-02T12:12:09.661Z,41.87
2018-05-02T12:14:41.575Z,40.41
2018-05-02T12:15:41.632Z,39.73
2018-05-02T12:16:41.823Z,39.76
2018-05-02T12:17:42.033Z,41.77
2018-05-02T12:18:42.250Z,40.91
2018-05-02T12:19:42.452Z,39.37
2018-05-02T12:20:42.670Z,39.68
2018-05-02T12:21:42.878Z,40.23
2018-05-02T12:22:43.149Z,40.99
2018-05-02T12:23:43.313Z,41.27
2018-05-02T12:24:43.544Z,41.66
2018-05-02T12:25:43.752Z,41.94
2018-05-02T12:26:43.942Z,43.10
2018-05-02T12:27:44.215Z,44.56
2018-05-02T12:28:44.324Z,42.16
2018-05-02T12:29:44.539Z,42.44
2018-05-02T12:30:44.741Z,44.17
2018-05-02T12:31:44.951Z,45.11
2018-05-02T12:32:45.174Z,42.52
2018-05-02T12:33:45.365Z,43.12
2018-05-02T12:34:45.578Z,40.91
2018-05-02T12:35:45.768Z,41.10
2018-05-02T12:36:46.007Z,40.12
2018-05-02T12:37:46.261Z,40.99
2018-05-02T12:38:46.464Z,38.99
2018-05-02T12:39:46.654Z,39.28
2018-05-02T12:40:46.937Z,39.56
2018-05-02T12:41:47.077Z,39.18
2018-05-02T12:42:47.286Z,40.52
2018-05-02T12:43:47.492Z,43.87
2018-05-02T12:44:47.718Z,43.77
2018-05-02T12:45:47.904Z,42.69
2018-05-02T12:46:48.180Z,40.29
2018-05-02T12:47:48.241Z,39.04
2018-05-02T12:48:48.452Z,37.13
2018-05-02T12:49:48.639Z,36.66
2018-05-02T12:50:48.841Z,37.62
2018-05-02T12:51:49.041Z,38.09
2018-05-02T12:52:49.255Z,41.06
2018-05-02T12:53:49.451Z,39.81
2018-05-02T12:54:49.663Z,37.91
2018-05-02T12:55:49.884Z,36.60
2018-05-02T12:56:50.077Z,37.15
2018-05-02T12:57:50.265Z,39.45
2018-05-02T12:58:50.457Z,37.34
2018-05-02T12:59:50.646Z,37.34
2018-05-02T13:00:50.887Z,39.43
2018-05-02T13:01:51.071Z,37.40
2018-05-02T13:02:51.271Z,37.22
2018-05-02T13:03:51.473Z,38.95
2018-05-02T13:04:51.667Z,38.95
2018-05-02T13:05:51.854Z,40.08
2018-05-02T13:06:52.043Z,37.97
2018-05-02T13:07:52.242Z,38.16
2018-05-02T13:08:52.442Z,39.53
2018-05-02T13:09:52.706Z,42.04
2018-05-02T13:10:52.884Z,40.41
2018-05-02T13:11:53.087Z,36.97
2018-05-02T13:12:53.274Z,36.22
2018-05-02T13:13:53.482Z,37.24
2018-05-02T13:14:53.712Z,38.20
2018-05-02T13:15:53.878Z,36.55
2018-05-02T13:16:54.104Z,37.03
2018-05-02T13:17:54.300Z,35.89
2018-05-02T13:18:54.502Z,36.18
2018-05-02T13:21:26.361Z,37.99
2018-05-02T13:22:26.568Z,38.09
2018-05-02T13:23:26.869Z,39.16
2018-05-02T13:24:26.994Z,37.45
2018-05-02T13:25:27.162Z,35.80
2018-05-02T13:26:27.369Z,37.26
2018-05-02T13:27:27.568Z,39.76
2018-05-02T13:28:27.796Z,38.22
2018-05-02T13:29:28.007Z,39.06
2018-05-02T13:30:28.220Z,39.47
2018-05-02T13:31:28.433Z,37.07
2018-05-02T13:32:28.618Z,37.93
2018-05-02T13:33:28.813Z,40.50
2018-05-02T13:34:29.020Z,39.16
2018-05-02T13:35:29.223Z,37.43
2018-05-02T13:36:29.437Z,38.20
2018-05-02T13:37:29.688Z,38.01
2018-05-02T13:38:29.882Z,37.93
2018-05-02T13:39:30.074Z,35.43
2018-05-02T13:40:30.284Z,35.64
2018-05-02T13:41:31.038Z,35.83
2018-05-02T13:42:31.433Z,33.84